Time;durP1;ratioP1;P1;durP2;ratioP2;P2;SDS_P1;SDS_P2;PMS_P1;PMS_P2;Temp;Humidity;BMP_temperature;BMP_pressure;BME280_temperature;BME280_humidity;BME280_pressure;Samples;Min_cycle;Max_cycle;Signal;HPM_P1;HPM_P2
2024/02/01 00:01:50;;;;;;;3.80;3.00;;;7.50;99.90;;;;;;485036;245;27599;-72
2024/02/01 00:03:52;;;;;;;6.73;4.67;;;7.50;99.90;;;;;;485109;245;28056;-72
2024/02/01 00:05:53;;;;;;;6.47;4.20;;;7.50;99.90;;;;;;485048;245;27906;-73
2024/02/01 00:07:55;;;;;;;3.47;3.17;;;7.50;99.90;;;;;;485093;245;27934;-72
2024/02/01 00:09:55;;;;;;;5.00;3.40;;;7.50;99.90;;;;;;485023;245;28203;-72
2024/02/01 00:11:57;;;;;;;5.40;3.40;;;7.50;99.90;;;;;;485095;245;27895;-75
2024/02/01 00:13:58;;;;;;;3.83;3.47;;;7.50;99.90;;;;;;485080;245;28011;-72
2024/02/01 00:15:59;;;;;;;6.10;3.70;;;7.50;99.90;;;;;;485061;245;28181;-72
2024/02/01 00:18:00;;;;;;;5.77;3.73;;;7.50;99.90;;;;;;485111;245;28428;-72
2024/02/01 00:20:02;;;;;;;5.67;4.27;;;7.50;99.90;;;;;;485098;245;28562;-72
2024/02/01 00:22:03;;;;;;;5.17;3.80;;;7.50;99.90;;;;;;485110;245;28509;-75
2024/02/01 00:24:04;;;;;;;4.20;3.73;;;7.50;99.90;;;;;;485106;245;27985;-72
2024/02/01 00:26:05;;;;;;;4.83;3.90;;;7.50;99.90;;;;;;485069;245;28097;-72
2024/02/01 00:28:07;;;;;;;9.17;4.00;;;7.40;99.90;;;;;;485086;245;27978;-72
2024/02/01 00:30:08;;;;;;;5.30;3.97;;;7.40;99.90;;;;;;485125;245;27889;-72
2024/02/01 00:32:09;;;;;;;5.10;4.50;;;7.30;99.90;;;;;;485082;245;27926;-74
2024/02/01 00:34:10;;;;;;;5.47;4.17;;;7.20;99.90;;;;;;485066;245;27955;-72
2024/02/01 00:36:12;;;;;;;5.60;4.30;;;7.30;99.90;;;;;;485031;245;28047;-72
2024/02/01 00:38:13;;;;;;;5.20;3.77;;;7.30;99.90;;;;;;484893;245;27612;-72
2024/02/01 00:40:14;;;;;;;4.67;4.00;;;7.40;99.90;;;;;;485079;245;27859;-73
2024/02/01 00:42:15;;;;;;;3.87;3.57;;;7.40;99.90;;;;;;485075;245;27664;-73
2024/02/01 00:44:17;;;;;;;9.20;3.50;;;7.30;99.90;;;;;;485070;245;27707;-72
2024/02/01 00:46:18;;;;;;;4.97;4.23;;;7.30;99.90;;;;;;485030;245;28127;-72
2024/02/01 00:48:19;;;;;;;6.80;4.20;;;7.30;99.90;;;;;;485035;245;28557;-74
2024/02/01 00:50:20;;;;;;;5.37;4.20;;;7.30;99.90;;;;;;485067;245;27966;-72
2024/02/01 00:52:22;;;;;;;5.50;3.80;;;7.30;99.90;;;;;;485078;245;28705;-73
2024/02/01 00:54:23;;;;;;;8.70;5.93;;;7.30;99.90;;;;;;485048;245;28509;-72
2024/02/01 00:56:24;;;;;;;7.40;5.27;;;7.20;99.90;;;;;;485014;245;28593;-73
2024/02/01 00:58:25;;;;;;;6.70;4.90;;;7.10;99.90;;;;;;485113;245;27673;-75
2024/02/01 01:00:27;;;;;;;9.13;5.27;;;7.10;99.90;;;;;;485108;245;27736;-72
2024/02/01 01:02:28;;;;;;;6.10;5.30;;;7.10;99.90;;;;;;485066;245;28496;-73
2024/02/01 01:04:29;;;;;;;7.77;5.83;;;7.10;99.90;;;;;;485070;245;28148;-72
2024/02/01 01:06:30;;;;;;;6.40;5.53;;;7.00;99.90;;;;;;485062;245;27646;-72
2024/02/01 01:08:32;;;;;;;6.80;5.50;;;6.90;99.90;;;;;;485079;245;28010;-74
2024/02/01 01:10:33;;;;;;;8.10;5.20;;;6.90;99.90;;;;;;485023;245;28168;-72
2024/02/01 01:12:34;;;;;;;8.40;5.80;;;6.90;99.90;;;;;;485047;245;28027;-72
2024/02/01 01:14:35;;;;;;;6.07;5.47;;;6.90;99.90;;;;;;485045;245;28074;-72
2024/02/01 01:16:37;;;;;;;10.53;5.80;;;6.90;99.90;;;;;;485037;245;28026;-72
2024/02/01 01:18:38;;;;;;;7.50;6.37;;;6.90;99.90;;;;;;485090;245;27921;-73
2024/02/01 01:20:39;;;;;;;9.23;6.90;;;6.80;99.90;;;;;;485083;245;28051;-72
2024/02/01 01:22:40;;;;;;;7.37;5.77;;;6.80;99.90;;;;;;485057;245;28882;-72
2024/02/01 01:24:42;;;;;;;7.97;6.40;;;6.80;99.90;;;;;;485091;245;28597;-74
2024/02/01 01:26:43;;;;;;;8.00;6.70;;;6.80;99.90;;;;;;485059;245;28405;-72
2024/02/01 01:28:44;;;;;;;7.70;6.53;;;6.80;99.90;;;;;;484974;245;28361;-73
2024/02/01 01:30:45;;;;;;;11.60;7.17;;;6.80;99.90;;;;;;485103;245;28425;-72
2024/02/01 01:32:47;;;;;;;8.93;6.70;;;6.70;99.90;;;;;;485111;245;28211;-72
2024/02/01 01:34:48;;;;;;;8.30;6.95;;;6.70;99.90;;;;;;485073;245;28893;-74
2024/02/01 01:36:49;;;;;;;8.33;6.60;;;6.70;99.90;;;;;;485072;245;27627;-72
2024/02/01 01:38:50;;;;;;;9.63;7.32;;;6.70;99.90;;;;;;485088;245;27801;-72
2024/02/01 01:40:52;;;;;;;10.55;8.27;;;6.70;99.90;;;;;;485068;245;27540;-72
2024/02/01 01:42:53;;;;;;;9.17;6.97;;;6.50;99.90;;;;;;485135;245;27622;-72
2024/02/01 01:44:54;;;;;;;8.17;7.30;;;6.50;99.90;;;;;;485098;245;28203;-73
2024/02/01 01:46:55;;;;;;;10.80;8.23;;;6.60;99.90;;;;;;485040;243;28845;-72
2024/02/01 01:48:57;;;;;;;9.73;7.10;;;6.60;99.90;;;;;;485089;245;29159;-72
2024/02/01 01:50:58;;;;;;;7.87;6.67;;;6.60;99.90;;;;;;485121;245;29150;-74
2024/02/01 01:52:59;;;;;;;10.00;7.67;;;6.60;99.90;;;;;;485085;245;28591;-72
2024/02/01 01:55:00;;;;;;;8.45;7.15;;;6.60;99.90;;;;;;485104;245;29523;-73
2024/02/01 01:57:02;;;;;;;10.77;8.37;;;6.60;99.90;;;;;;485077;245;27493;-72
2024/02/01 01:59:03;;;;;;;9.82;7.70;;;6.60;99.90;;;;;;485105;245;27658;-72
2024/02/01 02:01:04;;;;;;;10.50;7.97;;;6.60;99.90;;;;;;485101;245;27659;-73
2024/02/01 02:03:05;;;;;;;12.40;8.23;;;6.60;99.90;;;;;;485085;245;28841;-72
2024/02/01 02:05:07;;;;;;;14.02;7.75;;;6.60;99.90;;;;;;485070;245;27624;-72
2024/02/01 02:07:08;;;;;;;10.85;8.20;;;6.60;99.90;;;;;;485046;245;28841;-72
2024/02/01 02:09:12;;;;;;;10.38;8.27;;;6.60;99.90;;;;;;485111;245;27537;-72
2024/02/01 02:11:11;;;;;;;11.80;7.70;;;6.50;99.90;;;;;;484937;245;27532;-72
2024/02/01 02:13:12;;;;;;;9.13;7.60;;;6.40;99.90;;;;;;485088;245;28413;-72
2024/02/01 02:15:16;;;;;;;9.23;7.95;;;6.40;99.90;;;;;;485051;245;27560;-74
2024/02/01 02:17:14;;;;;;;11.00;7.87;;;6.40;99.90;;;;;;484807;245;27616;-74
2024/02/01 02:19:16;;;;;;;14.77;9.13;;;6.40;99.90;;;;;;485131;245;28044;-72
2024/02/01 02:21:18;;;;;;;12.13;7.55;;;6.40;99.90;;;;;;485127;245;28000;-72
2024/02/01 02:23:18;;;;;;;10.13;6.97;;;6.40;99.90;;;;;;485002;245;27493;-72
2024/02/01 02:25:20;;;;;;;12.27;8.15;;;6.40;99.90;;;;;;485044;245;27533;-72
2024/02/01 02:27:21;;;;;;;12.00;8.30;;;6.40;99.90;;;;;;485055;245;27616;-73
2024/02/01 02:29:22;;;;;;;8.53;7.30;;;6.40;99.90;;;;;;485080;245;28832;-72
2024/02/01 02:31:23;;;;;;;11.37;7.00;;;6.30;99.90;;;;;;485100;245;28339;-73
2024/02/01 02:33:24;;;;;;;10.30;8.07;;;6.30;99.90;;;;;;485093;245;28857;-72
2024/02/01 02:35:26;;;;;;;10.25;7.90;;;6.30;99.90;;;;;;485075;245;29426;-72
2024/02/01 02:37:27;;;;;;;10.07;7.30;;;6.20;99.90;;;;;;485085;245;27986;-73
2024/02/01 02:39:28;;;;;;;9.00;7.12;;;6.20;99.90;;;;;;485110;245;27494;-72
2024/02/01 02:41:29;;;;;;;10.88;7.87;;;6.30;99.90;;;;;;485119;245;27556;-73
2024/02/01 02:43:31;;;;;;;13.13;7.45;;;6.20;99.90;;;;;;485113;245;27926;-74
2024/02/01 02:45:32;;;;;;;9.10;6.15;;;6.20;99.90;;;;;;485049;245;28000;-72
2024/02/01 02:47:33;;;;;;;14.02;7.22;;;6.30;99.90;;;;;;485091;245;28012;-72
2024/02/01 02:49:34;;;;;;;12.97;6.70;;;6.30;99.90;;;;;;485129;245;27486;-72
2024/02/01 02:51:39;;;;;;;8.80;6.05;;;6.30;99.90;;;;;;485100;245;28881;-72
2024/02/01 02:53:37;;;;;;;10.90;6.57;;;6.30;99.90;;;;;;484916;245;27547;-72
2024/02/01 02:55:38;;;;;;;8.33;6.10;;;6.30;99.90;;;;;;485098;245;27505;-72
2024/02/01 02:57:39;;;;;;;13.60;6.27;;;6.30;99.90;;;;;;485090;245;28897;-72
2024/02/01 02:59:41;;;;;;;10.40;5.50;;;6.20;99.90;;;;;;485085;245;28848;-72
2024/02/01 03:01:43;;;;;;;9.88;5.72;;;6.30;99.90;;;;;;485098;245;28604;-72
2024/02/01 03:03:43;;;;;;;7.62;5.28;;;6.30;99.90;;;;;;485119;245;27984;-72
2024/02/01 03:05:45;;;;;;;6.35;5.00;;;6.30;99.90;;;;;;485073;245;27598;-72
2024/02/01 03:07:46;;;;;;;6.07;4.60;;;6.30;99.90;;;;;;485077;245;27543;-72
2024/02/01 03:09:47;;;;;;;11.93;5.20;;;6.30;99.90;;;;;;485121;245;28039;-73
2024/02/01 03:11:48;;;;;;;6.55;5.25;;;6.40;99.90;;;;;;485113;245;27549;-72
2024/02/01 03:13:50;;;;;;;7.60;5.78;;;6.30;99.90;;;;;;485103;245;28005;-72
2024/02/01 03:15:51;;;;;;;8.70;5.10;;;6.20;99.90;;;;;;485061;245;27856;-72
2024/02/01 03:17:52;;;;;;;12.75;5.55;;;6.30;99.90;;;;;;485095;245;27506;-72
2024/02/01 03:19:54;;;;;;;7.10;5.57;;;6.30;99.90;;;;;;485110;245;27573;-72
2024/02/01 03:21:55;;;;;;;5.70;5.10;;;6.30;99.90;;;;;;485066;245;27503;-72
2024/02/01 03:23:58;;;;;;;8.30;5.87;;;6.30;99.90;;;;;;485068;245;27540;-72
2024/02/01 03:25:58;;;;;;;7.00;5.97;;;6.30;99.90;;;;;;484887;245;28007;-72
2024/02/01 03:28:01;;;;;;;8.37;5.47;;;6.30;99.90;;;;;;485090;245;29286;-72
2024/02/01 03:30:03;;;;;;;7.20;5.80;;;6.30;99.90;;;;;;485102;245;27837;-72
2024/02/01 03:32:07;;;;;;;7.40;5.40;;;6.30;99.90;;;;;;485084;245;27992;-72
2024/02/01 03:34:10;;;;;;;15.47;6.10;;;6.30;99.90;;;;;;485075;245;28590;-73
2024/02/01 03:36:09;;;;;;;11.02;5.70;;;6.30;99.90;;;;;;484829;245;29323;-72
2024/02/01 03:38:15;;;;;;;6.50;5.60;;;6.30;99.90;;;;;;485102;245;27581;-72
2024/02/01 03:40:14;;;;;;;7.05;5.20;;;6.40;99.90;;;;;;484772;245;27525;-72
2024/02/01 03:42:13;;;;;;;9.70;5.20;;;6.40;99.90;;;;;;484884;245;27498;-72
2024/02/01 03:44:14;;;;;;;7.57;5.10;;;6.40;99.90;;;;;;485062;245;27521;-72
2024/02/01 03:46:15;;;;;;;10.10;5.90;;;6.40;99.90;;;;;;485059;245;28900;-74
2024/02/01 03:48:17;;;;;;;7.20;4.97;;;6.30;99.90;;;;;;485080;245;29360;-72
2024/02/01 03:50:19;;;;;;;6.00;3.90;;;6.30;99.90;;;;;;485072;245;28004;-72
2024/02/01 03:52:20;;;;;;;6.32;4.70;;;6.30;99.90;;;;;;485015;245;27545;-71
2024/02/01 03:54:21;;;;;;;7.45;5.03;;;6.40;99.90;;;;;;485073;245;27616;-72
2024/02/01 03:56:23;;;;;;;7.57;4.97;;;6.40;99.90;;;;;;485094;245;27525;-73
2024/02/01 03:58:25;;;;;;;7.93;4.95;;;6.40;99.90;;;;;;484986;245;27561;-72
2024/02/01 04:00:31;;;;;;;8.50;5.00;;;6.40;99.90;;;;;;484966;245;27563;-72
2024/02/01 04:02:32;;;;;;;6.68;4.90;;;6.40;99.90;;;;;;485107;245;27981;-74
2024/02/01 04:04:33;;;;;;;6.22;4.57;;;6.40;99.90;;;;;;485085;245;27545;-72
2024/02/01 04:06:34;;;;;;;7.43;5.00;;;6.50;99.90;;;;;;485034;245;27592;-72
2024/02/01 04:08:36;;;;;;;6.67;4.90;;;6.50;99.90;;;;;;485063;245;28844;-72
2024/02/01 04:10:37;;;;;;;7.62;4.90;;;6.50;99.90;;;;;;485082;245;27479;-72
2024/02/01 04:12:38;;;;;;;7.15;5.12;;;6.40;99.90;;;;;;485065;245;28028;-73
2024/02/01 04:14:39;;;;;;;8.10;5.25;;;6.50;99.90;;;;;;485070;245;28129;-72
2024/02/01 04:16:41;;;;;;;6.32;4.65;;;6.50;99.90;;;;;;484976;245;27437;-72
2024/02/01 04:18:42;;;;;;;6.35;5.12;;;6.50;99.90;;;;;;485080;245;27616;-71
2024/02/01 04:20:43;;;;;;;9.45;4.75;;;6.50;99.90;;;;;;485075;245;27504;-72
2024/02/01 04:22:46;;;;;;;12.77;4.22;;;6.50;99.90;;;;;;485078;245;27438;-73
2024/02/01 04:24:46;;;;;;;7.73;4.80;;;6.50;99.90;;;;;;484966;245;27942;-73
2024/02/01 04:26:47;;;;;;;6.43;4.75;;;6.50;99.90;;;;;;485025;245;29395;-73
2024/02/01 04:28:51;;;;;;;10.20;5.43;;;6.50;99.90;;;;;;485096;245;27552;-74
2024/02/01 04:30:53;;;;;;;7.10;4.80;;;6.60;99.90;;;;;;484678;245;27612;-72
2024/02/01 04:32:54;;;;;;;10.32;5.25;;;6.50;99.90;;;;;;485025;245;28489;-72
2024/02/01 04:34:55;;;;;;;6.57;4.90;;;6.50;99.90;;;;;;484977;245;27524;-72
2024/02/01 04:36:56;;;;;;;7.95;5.75;;;6.40;99.90;;;;;;485040;245;27533;-72
2024/02/01 04:38:57;;;;;;;8.40;5.43;;;6.40;99.90;;;;;;485107;245;27484;-72
2024/02/01 04:40:59;;;;;;;7.37;5.65;;;6.50;99.90;;;;;;485075;245;27457;-72
2024/02/01 04:43:01;;;;;;;6.85;4.93;;;6.50;99.90;;;;;;485067;245;27628;-72
2024/02/01 04:45:04;;;;;;;11.73;5.37;;;6.60;99.90;;;;;;484983;245;27919;-72
2024/02/01 04:47:02;;;;;;;10.50;5.85;;;6.50;99.90;;;;;;484815;245;29374;-74
2024/02/01 04:49:11;;;;;;;8.13;5.27;;;6.50;99.90;;;;;;485044;245;27516;-72
2024/02/01 04:51:05;;;;;;;7.70;5.80;;;6.50;99.90;;;;;;484474;245;27870;-72
2024/02/01 04:53:06;;;;;;;8.35;5.80;;;6.50;99.90;;;;;;485083;245;27567;-72
2024/02/01 04:55:09;;;;;;;12.57;5.63;;;6.60;99.90;;;;;;485107;245;27503;-72
2024/02/01 04:57:13;;;;;;;6.70;5.80;;;6.60;99.90;;;;;;484929;245;28920;-73
2024/02/01 04:59:10;;;;;;;12.10;6.50;;;6.60;99.90;;;;;;484769;245;28880;-72
2024/02/01 05:01:11;;;;;;;11.90;6.60;;;6.60;99.90;;;;;;485063;245;28988;-72
2024/02/01 05:03:16;;;;;;;12.60;7.00;;;6.60;99.90;;;;;;485085;245;28754;-75
2024/02/01 05:05:14;;;;;;;9.20;6.03;;;6.60;99.90;;;;;;484828;245;28543;-72
2024/02/01 05:07:15;;;;;;;8.38;6.03;;;6.60;99.90;;;;;;485069;245;29482;-72
2024/02/01 05:09:32;;;;;;;12.73;7.60;;;6.70;99.90;;;;;;485035;245;27493;-71
2024/02/01 05:11:26;;;;;;;9.43;7.10;;;6.70;99.90;;;;;;484522;245;27868;-72
2024/02/01 05:13:30;;;;;;;7.90;6.37;;;6.70;99.90;;;;;;485057;245;27514;-72
2024/02/01 05:15:29;;;;;;;9.13;6.28;;;6.70;99.90;;;;;;484877;245;27576;-74
2024/02/01 05:17:30;;;;;;;12.20;6.60;;;6.70;99.90;;;;;;485080;245;27434;-72
2024/02/01 05:19:31;;;;;;;9.13;6.75;;;6.70;99.90;;;;;;485054;245;28709;-72
2024/02/01 05:21:33;;;;;;;9.93;7.30;;;6.70;99.90;;;;;;485059;245;27997;-72
2024/02/01 05:23:35;;;;;;;11.38;7.57;;;6.70;99.90;;;;;;485091;245;29154;-72
2024/02/01 05:25:40;;;;;;;15.93;8.20;;;6.70;99.90;;;;;;484992;245;27624;-72
2024/02/01 05:27:36;;;;;;;9.30;7.83;;;6.70;99.90;;;;;;484725;245;28838;-72
2024/02/01 05:29:38;;;;;;;8.90;7.10;;;6.70;99.90;;;;;;485068;245;28167;-72
2024/02/01 05:31:39;;;;;;;10.93;8.43;;;6.70;99.90;;;;;;485092;245;28457;-72
2024/02/01 05:33:40;;;;;;;11.23;7.47;;;6.80;99.90;;;;;;485077;245;28193;-71
2024/02/01 05:35:42;;;;;;;14.13;8.73;;;6.80;99.90;;;;;;485002;245;27915;-73
2024/02/01 05:37:46;;;;;;;12.10;8.85;;;6.80;99.90;;;;;;485036;245;27653;-72
2024/02/01 05:39:47;;;;;;;8.77;7.40;;;6.80;99.90;;;;;;484995;245;27563;-72
2024/02/01 05:41:48;;;;;;;11.33;8.03;;;6.80;99.90;;;;;;485061;245;28914;-72
2024/02/01 05:43:49;;;;;;;11.90;8.63;;;6.70;99.90;;;;;;485087;245;27925;-73
2024/02/01 05:45:51;;;;;;;11.93;7.93;;;6.80;99.90;;;;;;485024;245;27899;-72
2024/02/01 05:47:52;;;;;;;10.30;7.57;;;6.80;99.90;;;;;;485057;245;28887;-72
2024/02/01 05:49:54;;;;;;;16.50;8.30;;;6.80;99.90;;;;;;485059;245;27759;-72
2024/02/01 05:51:54;;;;;;;8.90;7.80;;;6.80;99.90;;;;;;485011;245;28237;-72
2024/02/01 05:53:56;;;;;;;9.43;7.57;;;6.80;99.90;;;;;;485063;245;28273;-72
2024/02/01 05:55:57;;;;;;;18.07;7.80;;;6.80;99.90;;;;;;485030;245;29294;-72
2024/02/01 05:57:58;;;;;;;10.37;7.03;;;6.80;99.90;;;;;;485067;245;28421;-72
2024/02/01 06:00:00;;;;;;;12.43;7.70;;;6.80;99.90;;;;;;485115;245;27421;-74
2024/02/01 06:02:04;;;;;;;11.30;7.63;;;6.80;99.90;;;;;;485039;245;29081;-72
2024/02/01 06:04:02;;;;;;;12.33;7.43;;;6.80;99.90;;;;;;484798;245;27862;-72
2024/02/01 06:06:03;;;;;;;10.83;7.90;;;6.80;99.90;;;;;;485038;245;28680;-72
2024/02/01 06:08:04;;;;;;;10.40;7.20;;;6.80;99.90;;;;;;485099;245;27744;-73
2024/02/01 06:10:07;;;;;;;10.03;7.60;;;6.80;99.90;;;;;;485090;245;28888;-73
2024/02/01 06:12:07;;;;;;;11.40;7.87;;;6.90;99.90;;;;;;484994;245;27869;-72
2024/02/01 06:14:08;;;;;;;10.17;6.93;;;6.80;99.90;;;;;;485087;245;28099;-72
2024/02/01 06:16:09;;;;;;;8.33;6.47;;;6.80;99.90;;;;;;485017;245;28547;-72
2024/02/01 06:18:11;;;;;;;10.40;7.10;;;6.80;99.90;;;;;;485079;245;29515;-72
2024/02/01 06:20:12;;;;;;;14.03;7.13;;;6.90;99.90;;;;;;485089;245;28637;-74
2024/02/01 06:22:13;;;;;;;7.53;6.77;;;6.90;99.90;;;;;;485082;245;28212;-72
2024/02/01 06:24:14;;;;;;;11.97;7.77;;;6.90;99.90;;;;;;485079;245;28719;-72
2024/02/01 06:26:16;;;;;;;7.65;6.30;;;6.80;99.90;;;;;;485048;245;27692;-72
2024/02/01 06:28:17;;;;;;;10.90;6.30;;;6.90;99.90;;;;;;485127;245;27517;-72
2024/02/01 06:30:18;;;;;;;9.13;6.37;;;6.80;99.90;;;;;;485013;245;28966;-72
2024/02/01 06:32:19;;;;;;;11.37;6.60;;;6.80;99.90;;;;;;485109;245;27494;-72
2024/02/01 06:34:38;;;;;;;10.10;6.50;;;6.80;99.90;;;;;;485119;245;28972;-72
2024/02/01 06:36:40;;;;;;;6.50;5.80;;;6.80;99.90;;;;;;484364;245;27877;-72
2024/02/01 06:43:09;;;;;;;10.68;6.10;;;6.90;99.90;;;;;;485079;245;27502;-72
2024/02/01 06:45:24;;;;;;;9.38;5.85;;;6.90;99.90;;;;;;483963;245;28054;-72
2024/02/01 06:47:11;;;;;;;9.13;6.43;;;6.90;99.90;;;;;;483550;245;27486;-72
2024/02/01 06:49:18;;;;;;;8.70;5.60;;;6.90;99.90;;;;;;484812;245;28139;-72
2024/02/01 06:51:25;;;;;;;6.03;5.43;;;6.90;99.90;;;;;;484546;245;29347;-72
2024/02/01 06:53:32;;;;;;;7.43;5.67;;;6.90;99.90;;;;;;484810;245;28865;-72
2024/02/01 06:56:00;;;;;;;7.00;6.30;;;6.90;99.90;;;;;;484300;245;27974;-73
2024/02/01 06:58:16;;;;;;;5.80;5.20;;;6.90;99.90;;;;;;482773;245;29006;-72
2024/02/01 06:59:54;;;;;;;5.43;4.93;;;6.90;99.90;;;;;;481756;245;27528;-72
2024/02/01 07:02:03;;;;;;;7.43;5.57;;;6.90;99.90;;;;;;483602;245;27622;-72
2024/02/01 07:10:43;;;;;;;7.33;5.40;;;6.90;99.90;;;;;;469236;245;28132;-72
2024/02/01 07:12:53;;;;;;;8.30;5.23;;;6.90;99.90;;;;;;484344;245;28091;-73
2024/02/01 07:15:09;;;;;;;6.70;5.47;;;6.90;99.90;;;;;;484352;245;28607;-73
2024/02/01 07:17:05;;;;;;;5.23;4.73;;;6.90;99.90;;;;;;483245;245;28566;-73
2024/02/01 07:21:30;;;;;;;6.70;5.20;;;7.00;99.90;;;;;;485156;245;28375;-74
2024/02/01 07:25:36;;;;;;;7.07;5.70;;;7.00;99.90;;;;;;485087;245;28848;-72
2024/02/01 07:57:54;;;;;;;8.20;6.10;;;7.10;99.90;;;;;;485029;245;27536;-72
2024/02/01 07:59:57;;;;;;;8.77;6.30;;;7.20;99.90;;;;;;484906;245;30436;-73
2024/02/01 08:02:23;;;;;;;6.67;6.00;;;7.20;99.90;;;;;;484699;245;28033;-72
2024/02/01 08:04:16;;;;;;;6.63;5.80;;;7.10;99.90;;;;;;483335;245;27964;-71
2024/02/01 08:08:35;;;;;;;7.87;6.67;;;7.20;99.90;;;;;;485091;245;28512;-72
2024/02/01 08:10:36;;;;;;;7.00;5.67;;;7.20;99.90;;;;;;485063;245;28145;-72
2024/02/01 08:12:37;;;;;;;9.07;5.50;;;7.20;99.90;;;;;;485047;245;28557;-72
2024/02/01 08:14:38;;;;;;;8.80;7.07;;;7.30;99.90;;;;;;485095;245;27489;-72
2024/02/01 08:16:40;;;;;;;9.43;7.10;;;7.30;99.90;;;;;;485060;245;28322;-73
2024/02/01 08:18:41;;;;;;;9.00;6.27;;;7.30;99.90;;;;;;485072;245;27915;-72
2024/02/01 08:20:42;;;;;;;8.50;6.50;;;7.30;99.90;;;;;;484907;245;28101;-72
2024/02/01 08:22:44;;;;;;;11.47;7.90;;;7.30;99.90;;;;;;485095;245;27743;-74
2024/02/01 08:24:54;;;;;;;11.43;8.40;;;7.30;99.90;;;;;;484830;245;27637;-72
2024/02/01 08:26:47;;;;;;;11.20;8.67;;;7.20;99.90;;;;;;484261;245;28013;-72
2024/02/01 08:28:47;;;;;;;8.57;7.10;;;7.20;99.90;;;;;;484985;245;27960;-72
2024/02/01 08:30:48;;;;;;;11.70;7.30;;;7.30;99.90;;;;;;485074;245;27756;-72
2024/02/01 08:32:50;;;;;;;10.30;8.67;;;7.30;99.90;;;;;;485082;245;28114;-72
2024/02/01 08:34:54;;;;;;;11.27;8.90;;;7.30;99.90;;;;;;485077;245;28140;-72
2024/02/01 08:36:54;;;;;;;10.40;7.77;;;7.30;99.90;;;;;;484788;245;28301;-72
2024/02/01 08:38:53;;;;;;;8.13;6.93;;;7.30;99.90;;;;;;484959;245;28605;-72
2024/02/01 08:40:55;;;;;;;15.67;9.57;;;7.40;99.90;;;;;;485105;245;28533;-72
2024/02/01 08:42:59;;;;;;;8.00;6.83;;;7.40;99.90;;;;;;485068;245;28529;-73
2024/02/01 08:45:00;;;;;;;10.37;8.20;;;7.40;99.90;;;;;;485099;245;28044;-74
2024/02/01 08:47:01;;;;;;;10.40;8.30;;;7.40;99.90;;;;;;485005;245;27960;-72
2024/02/01 08:49:02;;;;;;;11.93;8.27;;;7.40;99.90;;;;;;485067;245;28031;-73
2024/02/01 08:51:03;;;;;;;11.20;8.83;;;7.40;99.90;;;;;;485041;245;27701;-72
2024/02/01 08:53:08;;;;;;;9.23;7.63;;;7.40;99.90;;;;;;485107;245;27959;-72
2024/02/01 08:55:10;;;;;;;13.07;8.10;;;7.40;99.90;;;;;;484844;245;27941;-72
2024/02/01 08:57:13;;;;;;;13.13;9.50;;;7.40;99.90;;;;;;484650;245;28140;-72
2024/02/01 08:59:22;;;;;;;10.77;9.67;;;7.40;99.90;;;;;;484808;245;28017;-72
2024/02/01 09:01:26;;;;;;;8.00;7.20;;;7.40;99.90;;;;;;484147;245;28008;-72
2024/02/01 09:03:29;;;;;;;9.00;8.10;;;7.40;99.90;;;;;;484996;245;27913;-71
2024/02/01 09:05:28;;;;;;;11.50;9.53;;;7.40;99.90;;;;;;484833;245;27953;-70
2024/02/01 09:07:34;;;;;;;10.80;9.30;;;7.40;99.90;;;;;;485001;245;27911;-73
2024/02/01 09:09:30;;;;;;;13.20;7.90;;;7.40;99.90;;;;;;484634;245;27500;-72
2024/02/01 09:11:31;;;;;;;10.50;8.10;;;7.40;99.90;;;;;;485106;245;27905;-72
2024/02/01 09:13:32;;;;;;;10.90;8.70;;;7.40;99.90;;;;;;485073;245;27746;-73
2024/02/01 09:15:35;;;;;;;14.40;8.40;;;7.50;99.90;;;;;;485028;245;28071;-72
2024/02/01 09:17:35;;;;;;;12.27;8.37;;;7.50;99.90;;;;;;484956;245;28109;-72
2024/02/01 09:19:36;;;;;;;13.67;10.30;;;7.60;99.90;;;;;;485091;245;28544;-75
2024/02/01 09:21:39;;;;;;;11.30;9.03;;;7.60;99.90;;;;;;485093;245;28440;-70
2024/02/01 09:23:38;;;;;;;10.40;8.33;;;7.50;99.90;;;;;;484949;245;28530;-73
2024/02/01 09:25:40;;;;;;;10.83;9.63;;;7.60;99.90;;;;;;485024;245;28130;-72
2024/02/01 09:27:44;;;;;;;10.57;9.20;;;7.60;99.90;;;;;;485015;245;28263;-72
2024/02/01 09:29:44;;;;;;;11.53;10.00;;;7.70;99.90;;;;;;484844;245;28135;-73
2024/02/01 09:31:44;;;;;;;11.70;8.40;;;7.70;99.90;;;;;;484867;245;27845;-72
2024/02/01 09:33:45;;;;;;;12.90;9.37;;;7.70;99.90;;;;;;485011;245;27560;-72
2024/02/01 09:35:46;;;;;;;10.40;8.67;;;7.70;99.90;;;;;;484980;245;27961;-72
2024/02/01 09:37:56;;;;;;;9.87;8.37;;;7.70;99.90;;;;;;485090;245;27968;-72
2024/02/01 09:39:48;;;;;;;8.40;7.20;;;7.80;99.90;;;;;;484399;245;28101;-73
2024/02/01 09:41:52;;;;;;;7.93;7.13;;;7.90;99.90;;;;;;485058;245;27806;-72
2024/02/01 09:43:51;;;;;;;8.03;7.20;;;7.90;99.90;;;;;;484892;245;28963;-73
2024/02/01 09:45:52;;;;;;;7.80;7.00;;;8.00;99.90;;;;;;485072;245;28550;-75
2024/02/01 09:47:53;;;;;;;7.90;6.93;;;8.00;99.90;;;;;;485030;245;28432;-72
2024/02/01 09:49:55;;;;;;;10.07;8.47;;;8.10;99.90;;;;;;485114;245;28585;-73
2024/02/01 09:51:56;;;;;;;11.63;8.00;;;8.10;99.90;;;;;;485093;245;28065;-72
2024/02/01 09:53:57;;;;;;;8.97;8.03;;;8.10;99.90;;;;;;485080;245;28018;-71
2024/02/01 09:55:58;;;;;;;8.60;7.77;;;8.10;99.90;;;;;;485074;245;28023;-75
2024/02/01 09:58:00;;;;;;;9.20;8.03;;;8.10;99.90;;;;;;485066;245;27858;-72
2024/02/01 10:00:01;;;;;;;10.03;8.37;;;8.20;99.90;;;;;;485081;245;27828;-72
2024/02/01 10:02:02;;;;;;;7.70;6.60;;;8.20;99.90;;;;;;485035;245;27967;-72
2024/02/01 10:04:03;;;;;;;8.10;7.10;;;8.20;99.90;;;;;;485101;245;27605;-72
2024/02/01 10:06:05;;;;;;;7.87;7.07;;;8.30;99.90;;;;;;485069;245;27781;-75
2024/02/01 10:08:09;;;;;;;7.73;6.93;;;8.30;99.90;;;;;;485084;245;28055;-72
2024/02/01 10:10:07;;;;;;;10.73;7.90;;;8.20;99.90;;;;;;484783;245;28072;-72
2024/02/01 10:12:08;;;;;;;8.80;6.40;;;8.20;99.90;;;;;;485060;245;27723;-72
2024/02/01 10:14:10;;;;;;;7.83;7.03;;;8.30;99.90;;;;;;485085;245;27836;-72
2024/02/01 10:16:14;;;;;;;7.80;7.00;;;8.40;99.90;;;;;;485071;245;28040;-73
2024/02/01 10:18:15;;;;;;;7.50;6.80;;;8.40;99.90;;;;;;485111;245;28022;-73
2024/02/01 10:20:16;;;;;;;9.23;8.13;;;8.40;99.90;;;;;;485085;245;27836;-71
2024/02/01 10:22:17;;;;;;;8.30;7.53;;;8.40;99.90;;;;;;485067;245;28372;-72
2024/02/01 10:24:20;;;;;;;10.10;7.10;;;8.40;99.90;;;;;;485098;245;28562;-73
2024/02/01 10:26:20;;;;;;;7.73;6.93;;;8.40;99.90;;;;;;485014;245;28404;-72
2024/02/01 10:28:22;;;;;;;8.57;7.60;;;8.50;99.90;;;;;;485111;245;28502;-73
2024/02/01 10:30:22;;;;;;;8.97;7.40;;;8.40;99.90;;;;;;485068;245;28099;-72
2024/02/01 10:32:24;;;;;;;7.87;6.40;;;8.50;99.90;;;;;;485064;245;28053;-72
2024/02/01 10:34:26;;;;;;;7.00;6.07;;;8.60;99.90;;;;;;485123;245;28273;-74
2024/02/01 10:36:28;;;;;;;8.80;6.80;;;8.70;99.90;;;;;;485029;245;28097;-71
2024/02/01 10:38:28;;;;;;;7.57;6.77;;;8.80;99.90;;;;;;484981;245;28022;-72
2024/02/01 10:40:29;;;;;;;12.37;7.57;;;8.90;99.90;;;;;;485102;245;27962;-72
2024/02/01 10:42:30;;;;;;;7.63;6.20;;;8.90;99.90;;;;;;485082;245;27933;-72
2024/02/01 10:44:32;;;;;;;8.30;6.93;;;8.90;99.90;;;;;;485135;245;28104;-74
2024/02/01 10:46:35;;;;;;;6.70;5.43;;;8.90;99.90;;;;;;485014;245;27849;-72
2024/02/01 10:48:35;;;;;;;6.23;5.63;;;8.90;99.90;;;;;;484919;245;27647;-72
2024/02/01 10:50:35;;;;;;;6.47;5.63;;;9.00;99.90;;;;;;485039;245;27927;-72
2024/02/01 10:52:36;;;;;;;8.70;5.80;;;8.90;99.90;;;;;;485101;245;27730;-72
2024/02/01 10:54:37;;;;;;;6.20;5.60;;;8.90;99.90;;;;;;485113;245;28036;-72
2024/02/01 10:56:39;;;;;;;5.80;5.30;;;8.90;99.90;;;;;;485089;245;28035;-72
2024/02/01 10:58:40;;;;;;;6.00;5.10;;;8.90;99.90;;;;;;485073;245;28605;-72
2024/02/01 11:00:42;;;;;;;6.70;5.67;;;9.00;99.90;;;;;;485143;245;28576;-72
2024/02/01 11:02:44;;;;;;;5.33;4.63;;;8.90;99.90;;;;;;485130;245;28397;-72
2024/02/01 11:04:44;;;;;;;6.73;5.13;;;9.00;99.90;;;;;;485030;245;28367;-72
2024/02/01 11:06:45;;;;;;;6.60;5.53;;;9.00;99.90;;;;;;485070;245;28064;-72
2024/02/01 11:08:46;;;;;;;5.40;4.90;;;9.00;99.90;;;;;;485060;245;28059;-72
2024/02/01 11:10:47;;;;;;;5.80;5.00;;;8.90;99.90;;;;;;485038;245;28100;-74
2024/02/01 11:12:49;;;;;;;8.10;4.90;;;8.90;99.90;;;;;;485101;245;28001;-72
2024/02/01 11:14:50;;;;;;;5.10;4.70;;;8.80;99.90;;;;;;485090;245;27654;-73
2024/02/01 11:16:51;;;;;;;4.80;4.40;;;8.70;99.90;;;;;;485030;245;28086;-72
2024/02/01 11:18:56;;;;;;;4.30;3.90;;;8.70;99.90;;;;;;485056;245;28019;-72
2024/02/01 11:20:55;;;;;;;5.53;5.03;;;8.70;99.90;;;;;;484888;245;28061;-74
2024/02/01 11:22:56;;;;;;;5.50;4.40;;;8.70;99.90;;;;;;484989;245;28093;-72
2024/02/01 11:24:56;;;;;;;4.97;4.57;;;8.70;99.90;;;;;;485058;245;28106;-72
2024/02/01 11:27:09;;;;;;;4.30;4.00;;;8.70;99.90;;;;;;485037;245;27943;-72